createdAt,value
2018-04-26T00:00:03.953Z,11.54
2018-04-26T00:01:04.131Z,11.57
2018-04-26T00:02:04.318Z,11.51
2018-04-26T00:03:04.500Z,11.57
2018-04-26T00:04:04.679Z,11.55
2018-04-26T00:05:04.859Z,11.57
2018-04-26T00:06:05.039Z,11.57
2018-04-26T00:07:05.214Z,11.55
2018-04-26T00:08:05.396Z,11.52
2018-04-26T00:09:05.577Z,11.57
2018-04-26T00:10:05.764Z,11.52
2018-04-26T00:11:05.937Z,11.57
2018-04-26T00:12:06.117Z,11.55
2018-04-26T00:13:06.295Z,11.52
2018-04-26T00:14:06.470Z,11.51
2018-04-26T00:15:06.650Z,11.52
2018-04-26T00:16:06.828Z,11.44
2018-04-26T00:17:07.014Z,11.40
2018-04-26T00:18:07.202Z,11.43
2018-04-26T00:19:07.383Z,11.52
2018-04-26T00:20:07.558Z,11.52
2018-04-26T00:21:07.742Z,11.40
2018-04-26T00:22:07.916Z,11.47
2018-04-26T00:23:08.095Z,11.40
2018-04-26T00:24:08.288Z,11.43
2018-04-26T00:25:08.473Z,11.41
2018-04-26T00:26:08.651Z,11.36
2018-04-26T00:27:08.838Z,11.45
2018-04-26T00:28:09.019Z,11.44
2018-04-26T00:29:09.203Z,11.43
2018-04-26T00:30:09.374Z,11.40
2018-04-26T00:31:09.554Z,11.36
2018-04-26T00:32:09.742Z,11.23
2018-04-26T00:33:09.916Z,11.26
2018-04-26T00:34:10.094Z,11.32
2018-04-26T00:35:10.270Z,11.14
2018-04-26T00:36:10.446Z,11.17
2018-04-26T00:37:10.633Z,11.22
2018-04-26T00:38:10.812Z,11.26
2018-04-26T00:39:10.992Z,11.18
2018-04-26T00:40:11.163Z,11.12
2018-04-26T00:41:11.346Z,11.19
2018-04-26T00:42:11.523Z,11.07
2018-04-26T00:43:11.702Z,11.11
2018-04-26T00:44:11.879Z,11.07
2018-04-26T00:45:12.054Z,11.12
2018-04-26T00:46:12.236Z,11.00
2018-04-26T00:47:12.420Z,10.99
2018-04-26T00:48:13.183Z,10.93
2018-04-26T00:49:12.723Z,10.89
2018-04-26T00:50:12.903Z,10.84
2018-04-26T00:51:13.082Z,10.87
2018-04-26T00:52:13.259Z,10.81
2018-04-26T00:53:13.446Z,10.72
2018-04-26T00:54:13.628Z,10.69
2018-04-26T00:55:13.801Z,10.79
2018-04-26T00:56:13.978Z,10.84
2018-04-26T00:57:14.153Z,10.89
2018-04-26T00:58:14.336Z,10.87
2018-04-26T00:59:14.517Z,10.84
2018-04-26T01:00:14.696Z,10.84
2018-04-26T01:01:14.876Z,10.84
2018-04-26T01:02:15.054Z,10.78
2018-04-26T01:03:15.228Z,10.82
2018-04-26T01:04:15.407Z,10.89
2018-04-26T01:05:15.588Z,10.84
2018-04-26T01:06:15.770Z,10.78
2018-04-26T01:07:15.958Z,10.69
2018-04-26T01:08:16.137Z,10.68
2018-04-26T01:09:16.319Z,10.67
2018-04-26T01:10:16.500Z,10.75
2018-04-26T01:11:16.677Z,10.74
2018-04-26T01:12:16.859Z,10.74
2018-04-26T01:13:17.037Z,10.71
2018-04-26T01:14:17.213Z,10.72
2018-04-26T01:15:17.387Z,10.74
2018-04-26T01:16:17.567Z,10.71
2018-04-26T01:17:17.747Z,10.74
2018-04-26T01:18:17.923Z,10.69
2018-04-26T01:19:18.102Z,10.69
2018-04-26T01:20:18.281Z,10.61
2018-04-26T01:21:18.459Z,10.46
2018-04-26T01:22:18.640Z,10.30
2018-04-26T01:23:18.825Z,10.22
2018-04-26T01:24:19.002Z,10.30
2018-04-26T01:25:19.178Z,10.22
2018-04-26T01:26:19.361Z,10.25
2018-04-26T01:27:19.538Z,10.13
2018-04-26T01:28:19.713Z,10.12
2018-04-26T01:29:19.898Z,10.04
2018-04-26T01:30:20.063Z,10.07
2018-04-26T01:31:20.246Z,10.04
2018-04-26T01:32:20.428Z,10.10
2018-04-26T01:33:20.617Z,10.07
2018-04-26T01:34:20.800Z,10.02
2018-04-26T01:35:20.977Z,10.05
2018-04-26T01:36:21.157Z,9.83
2018-04-26T01:37:21.331Z,9.91
2018-04-26T01:38:21.511Z,9.79
2018-04-26T01:39:21.689Z,9.77
2018-04-26T01:40:21.863Z,9.83
2018-04-26T01:41:22.041Z,9.84
2018-04-26T01:42:22.221Z,9.74
2018-04-26T01:43:22.393Z,9.77
2018-04-26T01:44:22.570Z,9.72
2018-04-26T01:45:22.755Z,9.72
2018-04-26T01:46:22.944Z,9.76
2018-04-26T01:47:23.127Z,9.66
2018-04-26T01:48:23.320Z,9.62
2018-04-26T01:49:23.504Z,9.54
2018-04-26T01:50:23.682Z,9.56
2018-04-26T01:51:23.857Z,9.51
2018-04-26T01:52:24.047Z,9.51
2018-04-26T01:53:24.218Z,9.56
2018-04-26T01:54:24.399Z,9.62
2018-04-26T01:55:24.576Z,9.51
2018-04-26T01:56:24.763Z,9.54
2018-04-26T01:57:24.938Z,9.55
2018-04-26T01:58:25.120Z,9.61
2018-04-26T01:59:25.300Z,9.58
2018-04-26T02:00:25.474Z,9.58
2018-04-26T02:01:25.655Z,9.56
2018-04-26T02:02:25.830Z,9.54
2018-04-26T02:03:26.023Z,9.61
2018-04-26T02:04:26.188Z,9.50
2018-04-26T02:05:26.362Z,9.62
2018-04-26T02:06:26.542Z,9.48
2018-04-26T02:07:26.726Z,9.44
2018-04-26T02:08:26.901Z,9.46
2018-04-26T02:09:27.074Z,9.37
2018-04-26T02:10:27.248Z,9.39
2018-04-26T02:11:27.437Z,9.22
2018-04-26T02:12:27.612Z,9.23
2018-04-26T02:13:27.795Z,9.22
2018-04-26T02:14:27.980Z,9.29
2018-04-26T02:15:28.231Z,9.22
2018-04-26T02:16:28.333Z,9.23
2018-04-26T02:17:28.517Z,9.19
2018-04-26T02:18:28.695Z,9.13
2018-04-26T02:19:28.868Z,9.06
2018-04-26T02:20:29.050Z,9.10
2018-04-26T02:21:29.225Z,9.11
2018-04-26T02:22:29.406Z,9.00
2018-04-26T02:23:29.589Z,9.18
2018-04-26T02:24:29.764Z,9.13
2018-04-26T02:25:29.943Z,9.18
2018-04-26T02:26:30.129Z,9.04
2018-04-26T02:27:30.325Z,9.18
2018-04-26T02:28:30.499Z,9.19
2018-04-26T02:29:30.678Z,9.22
2018-04-26T02:30:30.856Z,9.26
2018-04-26T02:31:31.026Z,9.31
2018-04-26T02:32:31.208Z,9.28
2018-04-26T02:33:31.385Z,9.28
2018-04-26T02:34:31.572Z,9.44
2018-04-26T02:35:31.747Z,9.37
2018-04-26T02:36:31.925Z,9.47
2018-04-26T02:37:32.099Z,9.47
2018-04-26T02:38:32.280Z,9.44
2018-04-26T02:39:32.481Z,9.54
2018-04-26T02:40:32.652Z,9.54
2018-04-26T02:41:32.876Z,9.43
2018-04-26T02:42:33.023Z,9.46
2018-04-26T02:43:33.203Z,9.46
2018-04-26T02:44:33.391Z,9.41
2018-04-26T02:45:33.568Z,9.48
2018-04-26T02:46:33.747Z,9.41
2018-04-26T02:47:33.928Z,9.40
2018-04-26T02:48:34.109Z,9.40
2018-04-26T02:49:34.302Z,9.39
2018-04-26T02:50:34.481Z,9.34
2018-04-26T02:51:34.661Z,9.23
2018-04-26T02:52:34.838Z,9.26
2018-04-26T02:53:35.019Z,9.25
2018-04-26T02:54:35.194Z,9.16
2018-04-26T02:55:35.382Z,9.22
2018-04-26T02:56:35.560Z,9.18
2018-04-26T02:57:35.742Z,9.16
2018-04-26T02:58:35.922Z,9.18
2018-04-26T02:59:36.102Z,9.23
2018-04-26T03:00:36.290Z,9.28
2018-04-26T03:01:36.467Z,9.26
2018-04-26T03:02:36.637Z,9.34
2018-04-26T03:03:36.816Z,9.31
2018-04-26T03:04:37.004Z,9.39
2018-04-26T03:05:37.183Z,9.26
2018-04-26T03:06:37.367Z,9.41
2018-04-26T03:07:37.543Z,9.40
2018-04-26T03:08:37.719Z,9.41
2018-04-26T03:09:37.899Z,9.46
2018-04-26T03:10:38.078Z,9.43
2018-04-26T03:11:38.257Z,9.46
2018-04-26T03:12:38.435Z,9.61
2018-04-26T03:13:38.621Z,9.51
2018-04-26T03:14:38.792Z,9.50
2018-04-26T03:15:38.970Z,9.58
2018-04-26T03:16:39.145Z,9.40
2018-04-26T03:17:39.316Z,9.48
2018-04-26T03:18:39.498Z,9.54
2018-04-26T03:19:39.674Z,9.56
2018-04-26T03:20:39.862Z,9.47
2018-04-26T03:21:40.040Z,9.48
2018-04-26T03:22:40.214Z,9.47
2018-04-26T03:23:40.395Z,9.46
2018-04-26T03:24:40.579Z,9.51
2018-04-26T03:25:40.751Z,9.37
2018-04-26T03:26:40.932Z,9.34
2018-04-26T03:27:41.108Z,9.37
2018-04-26T03:28:41.285Z,9.36
2018-04-26T03:29:41.464Z,9.31
2018-04-26T03:30:41.646Z,9.29
2018-04-26T03:31:41.823Z,9.23
2018-04-26T03:32:41.999Z,9.21
2018-04-26T03:33:42.177Z,9.16
2018-04-26T03:34:42.352Z,9.11
2018-04-26T03:35:42.524Z,9.03
2018-04-26T03:36:42.706Z,8.95
2018-04-26T03:37:42.882Z,8.97
2018-04-26T03:38:43.066Z,8.89
2018-04-26T03:39:43.244Z,8.84
2018-04-26T03:40:43.427Z,8.84
2018-04-26T03:41:43.605Z,8.78
2018-04-26T03:42:43.800Z,8.79
2018-04-26T03:43:43.974Z,8.76
2018-04-26T03:44:44.151Z,8.74
2018-04-26T03:45:44.331Z,8.79
2018-04-26T03:46:44.508Z,8.69
2018-04-26T03:47:44.687Z,8.64
2018-04-26T03:48:44.864Z,8.70
2018-04-26T03:49:45.050Z,8.67
2018-04-26T03:50:45.229Z,8.64
2018-04-26T03:51:45.418Z,8.56
2018-04-26T03:52:45.601Z,8.46
2018-04-26T03:53:45.782Z,8.42
2018-04-26T03:54:45.961Z,8.53
2018-04-26T03:55:46.147Z,8.53
2018-04-26T03:56:46.314Z,8.55
2018-04-26T03:57:46.493Z,8.61
2018-04-26T03:58:46.680Z,8.51
2018-04-26T03:59:46.865Z,8.49
2018-04-26T04:00:47.051Z,8.48
2018-04-26T04:01:47.224Z,8.49
2018-04-26T04:02:47.401Z,8.48
2018-04-26T04:03:47.577Z,8.45
2018-04-26T04:04:47.766Z,8.48
2018-04-26T04:05:47.946Z,8.44
2018-04-26T04:06:48.120Z,8.45
2018-04-26T04:07:48.296Z,8.46
2018-04-26T04:08:48.477Z,8.49
2018-04-26T04:09:48.663Z,8.49
2018-04-26T04:10:48.848Z,8.56
2018-04-26T04:11:49.022Z,8.52
2018-04-26T04:12:49.202Z,8.49
2018-04-26T04:13:49.388Z,8.56
2018-04-26T04:14:49.562Z,8.53
2018-04-26T04:15:49.731Z,8.56
2018-04-26T04:16:49.922Z,8.53
2018-04-26T04:17:50.088Z,8.53
2018-04-26T04:18:50.267Z,8.52
2018-04-26T04:19:50.519Z,8.52
2018-04-26T04:20:50.630Z,8.53
2018-04-26T04:21:50.806Z,8.56
2018-04-26T04:22:50.978Z,8.51
2018-04-26T04:23:51.169Z,8.49
2018-04-26T04:24:51.352Z,8.56
2018-04-26T04:25:51.539Z,8.46
2018-04-26T04:26:51.772Z,8.52
2018-04-26T04:27:51.888Z,8.53
2018-04-26T04:28:52.001Z,8.53
2018-04-26T04:29:52.174Z,8.44
2018-04-26T04:30:52.352Z,8.51
2018-04-26T04:31:52.533Z,8.56
2018-04-26T04:32:52.725Z,8.58
2018-04-26T04:33:52.904Z,8.71
2018-04-26T04:34:53.101Z,8.69
2018-04-26T04:35:53.299Z,8.74
2018-04-26T04:36:53.486Z,8.85
2018-04-26T04:37:53.663Z,8.91
2018-04-26T04:38:53.858Z,8.87
2018-04-26T04:39:54.036Z,8.89
2018-04-26T04:40:54.214Z,8.89
2018-04-26T04:41:54.394Z,8.73
2018-04-26T04:42:54.573Z,8.61
2018-04-26T04:43:54.769Z,8.70
2018-04-26T04:44:55.120Z,8.70
2018-04-26T04:45:55.072Z,8.69
2018-04-26T04:46:55.238Z,8.73
2018-04-26T04:47:55.455Z,8.69
2018-04-26T04:48:55.628Z,8.73
2018-04-26T04:49:55.799Z,8.78
2018-04-26T04:50:55.974Z,8.79
2018-04-26T04:51:56.167Z,8.76
2018-04-26T04:52:56.349Z,8.81
2018-04-26T04:53:56.524Z,8.74
2018-04-26T04:54:56.746Z,8.84
2018-04-26T04:55:56.919Z,8.74
2018-04-26T04:56:57.097Z,8.76
2018-04-26T04:57:57.273Z,8.71
2018-04-26T04:58:57.451Z,8.88
2018-04-26T04:59:57.639Z,8.95
2018-04-26T05:00:57.810Z,9.00
2018-04-26T05:01:58.001Z,8.95
2018-04-26T05:02:58.174Z,9.08
2018-04-26T05:03:58.361Z,9.04
2018-04-26T05:04:58.564Z,9.03
2018-04-26T05:05:58.632Z,9.08
2018-04-26T05:06:58.811Z,9.13
2018-04-26T05:07:59.010Z,9.13
2018-04-26T05:08:59.181Z,9.08
2018-04-26T05:09:59.361Z,9.18
2018-04-26T05:10:59.537Z,9.18
2018-04-26T05:11:59.718Z,9.16
2018-04-26T05:12:59.888Z,9.18
2018-04-26T05:14:00.093Z,9.19
2018-04-26T05:15:00.261Z,9.25
2018-04-26T05:16:00.444Z,9.31
2018-04-26T05:17:00.625Z,9.31
2018-04-26T05:18:00.805Z,9.26
2018-04-26T05:19:00.993Z,9.26
2018-04-26T05:20:01.208Z,9.41
2018-04-26T05:21:01.380Z,9.56
2018-04-26T05:22:01.585Z,9.68
2018-04-26T05:23:05.364Z,9.59
2018-04-26T05:24:04.012Z,9.76
2018-04-26T05:25:03.305Z,9.82
2018-04-26T05:26:05.400Z,9.84
2018-04-26T05:27:06.885Z,9.99
2018-04-26T05:28:05.878Z,9.97
2018-04-26T05:29:04.147Z,10.05
2018-04-26T05:30:07.135Z,10.16
2018-04-26T05:31:06.165Z,10.31
2018-04-26T05:32:06.231Z,10.38
2018-04-26T05:33:03.399Z,10.57
2018-04-26T05:34:03.577Z,10.82
2018-04-26T05:35:03.759Z,10.87
2018-04-26T05:36:03.938Z,10.81
2018-04-26T05:37:04.114Z,10.87
2018-04-26T05:38:04.296Z,10.93
2018-04-26T05:39:04.472Z,11.00
2018-04-26T05:40:04.656Z,10.99
2018-04-26T05:41:04.831Z,11.12
2018-04-26T05:42:05.007Z,10.89
2018-04-26T05:43:05.189Z,10.82
2018-04-26T05:44:05.371Z,10.90
2018-04-26T05:45:05.557Z,10.94
2018-04-26T05:46:05.741Z,10.82
2018-04-26T05:47:05.918Z,10.74
2018-04-26T05:48:06.096Z,10.89
2018-04-26T05:49:06.276Z,10.87
2018-04-26T05:50:06.460Z,10.92
2018-04-26T05:51:06.672Z,11.10
2018-04-26T05:52:06.822Z,11.12
2018-04-26T05:53:07.009Z,11.30
2018-04-26T05:54:07.198Z,11.33
2018-04-26T05:55:07.376Z,11.23
2018-04-26T05:56:07.596Z,11.41
2018-04-26T05:57:07.737Z,11.45
2018-04-26T05:58:07.917Z,11.37
2018-04-26T05:59:08.098Z,11.52
2018-04-26T06:00:08.277Z,11.88
2018-04-26T06:01:08.451Z,12.53
2018-04-26T06:02:08.635Z,13.22
2018-04-26T06:03:08.813Z,13.95
2018-04-26T06:04:08.993Z,14.23
2018-04-26T06:05:09.172Z,13.49
2018-04-26T06:06:09.373Z,13.23
2018-04-26T06:07:09.564Z,12.91
2018-04-26T06:08:09.759Z,12.57
2018-04-26T06:09:09.936Z,12.13
2018-04-26T06:10:10.153Z,12.12
2018-04-26T06:11:10.316Z,12.21
2018-04-26T06:12:10.510Z,12.32
2018-04-26T06:13:10.682Z,12.24
2018-04-26T06:14:10.868Z,12.60
2018-04-26T06:15:11.048Z,12.43
2018-04-26T06:16:11.233Z,12.29
2018-04-26T06:17:11.447Z,12.07
2018-04-26T06:18:11.605Z,11.95
2018-04-26T06:19:11.773Z,12.03
2018-04-26T06:20:11.952Z,11.87
2018-04-26T06:21:12.136Z,11.87
2018-04-26T06:22:12.355Z,11.81
2018-04-26T06:23:12.540Z,12.06
2018-04-26T06:24:12.722Z,12.07
2018-04-26T06:25:12.904Z,12.17
2018-04-26T06:26:13.083Z,12.06
2018-04-26T06:27:13.268Z,12.07
2018-04-26T06:28:13.454Z,11.90
2018-04-26T06:29:13.633Z,11.84
2018-04-26T06:30:13.810Z,12.02
2018-04-26T06:31:13.984Z,11.95
2018-04-26T06:32:14.162Z,12.06
2018-04-26T06:33:14.341Z,12.12
2018-04-26T06:34:14.525Z,12.42
2018-04-26T06:35:14.774Z,12.21
2018-04-26T06:36:14.830Z,12.31
2018-04-26T06:37:15.016Z,12.40
2018-04-26T06:38:15.204Z,12.57
2018-04-26T06:39:15.377Z,12.55
2018-04-26T06:40:15.561Z,12.55
2018-04-26T06:41:15.743Z,12.36
2018-04-26T06:42:15.935Z,12.40
2018-04-26T06:43:16.103Z,12.65
2018-04-26T06:44:16.425Z,12.85
2018-04-26T06:45:16.492Z,12.93
2018-04-26T06:46:16.687Z,12.95
2018-04-26T06:47:16.912Z,12.94
2018-04-26T06:48:17.088Z,12.86
2018-04-26T06:49:17.263Z,13.03
2018-04-26T06:50:17.445Z,12.83
2018-04-26T06:51:17.637Z,12.61
2018-04-26T06:52:17.817Z,12.64
2018-04-26T06:53:17.992Z,12.57
2018-04-26T06:54:18.171Z,12.72
2018-04-26T06:55:18.356Z,12.80
2018-04-26T06:56:18.531Z,12.64
2018-04-26T06:57:18.719Z,12.53
2018-04-26T06:58:18.894Z,12.53
2018-04-26T06:59:19.079Z,12.49
2018-04-26T07:00:19.259Z,12.57
2018-04-26T07:01:19.440Z,12.60
2018-04-26T07:02:19.621Z,12.43
2018-04-26T07:03:19.790Z,12.35
2018-04-26T07:04:19.980Z,12.31
2018-04-26T07:05:20.149Z,12.18
2018-04-26T07:06:20.323Z,12.12
2018-04-26T07:07:20.509Z,12.00
2018-04-26T07:08:20.686Z,11.84
2018-04-26T07:09:20.867Z,11.88
2018-04-26T07:10:21.044Z,11.91
2018-04-26T07:11:21.240Z,12.09
2018-04-26T07:12:21.444Z,12.95
2018-04-26T07:13:21.614Z,13.72
2018-04-26T07:14:21.800Z,13.47
2018-04-26T07:15:21.985Z,13.12
2018-04-26T07:16:22.215Z,12.98
2018-04-26T07:17:22.395Z,14.30
2018-04-26T07:18:22.578Z,14.78
2018-04-26T07:19:22.760Z,15.14
2018-04-26T07:20:22.933Z,15.84
2018-04-26T07:21:23.109Z,15.35
2018-04-26T07:22:23.298Z,14.97
2018-04-26T07:23:23.471Z,14.84
2018-04-26T07:24:23.655Z,14.70
2018-04-26T07:25:23.832Z,14.97
2018-04-26T07:26:24.023Z,15.65
2018-04-26T07:27:24.203Z,16.50
2018-04-26T07:28:24.381Z,18.25
2018-04-26T07:29:24.561Z,20.21
2018-04-26T07:30:24.737Z,20.21
2018-04-26T07:31:24.919Z,18.29
2018-04-26T07:32:25.104Z,18.15
2018-04-26T07:33:25.298Z,19.27
2018-04-26T07:34:25.578Z,20.41
2018-04-26T07:35:25.599Z,19.58
2018-04-26T07:36:25.783Z,20.48
2018-04-26T07:37:25.962Z,20.97
2018-04-26T07:38:26.151Z,21.09
2018-04-26T07:39:26.732Z,20.44
2018-04-26T07:40:27.918Z,20.03
2018-04-26T07:41:26.931Z,19.52
2018-04-26T07:42:27.247Z,18.92
2018-04-26T07:43:27.619Z,19.31
2018-04-26T07:44:27.572Z,19.91
2018-04-26T07:45:27.773Z,19.70
2018-04-26T07:46:27.806Z,20.34
2018-04-26T07:47:28.085Z,19.91
2018-04-26T07:48:28.145Z,19.18
2018-04-26T07:49:28.132Z,18.38
2018-04-26T07:50:28.888Z,18.00
2018-04-26T07:51:28.819Z,17.36
2018-04-26T07:52:28.955Z,16.66
2018-04-26T07:53:29.267Z,17.08
2018-04-26T07:54:29.562Z,17.94
2018-04-26T07:55:29.488Z,17.16
2018-04-26T07:56:29.736Z,19.27
2018-04-26T07:57:29.614Z,21.09
2018-04-26T07:58:30.420Z,22.00
2018-04-26T07:59:29.828Z,22.96
2018-04-26T08:00:29.934Z,23.96
2018-04-26T08:01:30.600Z,25.08
2018-04-26T08:02:30.525Z,23.69
2018-04-26T08:03:30.771Z,23.96
2018-04-26T08:04:30.861Z,24.96
2018-04-26T08:05:31.027Z,24.99
2018-04-26T08:06:31.111Z,24.29
2018-04-26T08:07:31.045Z,24.93
2018-04-26T08:08:31.585Z,24.69
2018-04-26T08:09:31.629Z,25.25
2018-04-26T08:10:31.906Z,22.00
2018-04-26T08:11:32.424Z,21.29
2018-04-26T08:12:32.131Z,22.18
2018-04-26T08:13:32.323Z,23.76
2018-04-26T08:14:32.448Z,23.83
2018-04-26T08:15:32.442Z,24.02
2018-04-26T08:16:32.644Z,23.74
2018-04-26T08:17:32.845Z,22.99
2018-04-26T08:18:33.032Z,23.86
2018-04-26T08:19:33.276Z,23.47
2018-04-26T08:20:33.465Z,24.10
2018-04-26T08:21:33.530Z,25.80
2018-04-26T08:22:33.723Z,22.15
2018-04-26T08:23:33.959Z,20.44
2018-04-26T08:24:34.505Z,19.37
2018-04-26T08:25:34.766Z,18.59
2018-04-26T08:26:34.499Z,19.45
2018-04-26T08:27:34.571Z,19.67
2018-04-26T08:28:34.759Z,21.07
2018-04-26T08:29:34.984Z,21.57
2018-04-26T08:30:35.552Z,21.61
2018-04-26T08:31:35.363Z,22.63
2018-04-26T08:32:35.586Z,22.02
2018-04-26T08:33:35.794Z,23.15
2018-04-26T08:34:36.003Z,23.95
2018-04-26T08:35:36.204Z,25.66
2018-04-26T08:36:36.409Z,26.19
2018-04-26T08:37:36.618Z,25.23
2018-04-26T08:38:36.841Z,23.87
2018-04-26T08:39:37.006Z,21.83
2018-04-26T08:40:37.199Z,20.81
2018-04-26T08:41:37.475Z,21.05
2018-04-26T08:42:37.614Z,21.43
2018-04-26T08:43:37.798Z,22.70
2018-04-26T08:44:37.997Z,22.14
2018-04-26T08:45:38.233Z,22.69
2018-04-26T08:46:38.415Z,23.21
2018-04-26T08:47:38.586Z,24.86
2018-04-26T08:48:38.775Z,25.48
2018-04-26T08:49:38.993Z,26.41
2018-04-26T08:50:39.178Z,25.73
2018-04-26T08:51:39.484Z,23.87
2018-04-26T08:52:39.502Z,23.84
2018-04-26T08:53:39.795Z,23.73
2018-04-26T08:54:39.820Z,23.55
2018-04-26T08:55:40.283Z,22.63
2018-04-26T08:56:40.687Z,23.36
2018-04-26T08:57:41.622Z,23.88
2018-04-26T08:58:40.655Z,24.08
2018-04-26T08:59:40.800Z,22.76
2018-04-26T09:00:40.904Z,22.22
2018-04-26T09:01:41.239Z,22.73
2018-04-26T09:02:41.407Z,23.34
2018-04-26T09:03:41.499Z,23.81
2018-04-26T09:04:41.692Z,22.66
2018-04-26T09:05:41.912Z,23.91
2018-04-26T09:06:42.197Z,25.28
2018-04-26T09:07:43.610Z,25.93
2018-04-26T09:08:42.489Z,26.28
2018-04-26T09:09:43.348Z,26.99
2018-04-26T09:10:42.913Z,26.80
2018-04-26T09:11:43.120Z,28.29
2018-04-26T09:12:43.306Z,29.54
2018-04-26T09:13:43.501Z,28.07
2018-04-26T09:14:43.702Z,27.11
2018-04-26T09:15:43.987Z,27.64
2018-04-26T09:16:44.093Z,27.55
2018-04-26T09:17:44.284Z,25.84
2018-04-26T09:18:44.479Z,25.88
2018-04-26T09:19:44.678Z,27.27
2018-04-26T09:20:44.871Z,26.73
2018-04-26T09:21:45.069Z,27.00
2018-04-26T09:22:45.253Z,26.16
2018-04-26T09:23:45.453Z,25.04
2018-04-26T09:24:45.638Z,24.86
2018-04-26T09:25:45.849Z,24.01
2018-04-26T09:26:46.036Z,22.94
2018-04-26T09:27:46.227Z,21.09
2018-04-26T09:28:46.426Z,21.83
2018-04-26T09:29:46.634Z,21.02
2018-04-26T09:30:46.824Z,20.51
2018-04-26T09:31:47.076Z,22.65
2018-04-26T09:32:47.174Z,23.74
2018-04-26T09:33:47.365Z,25.23
2018-04-26T09:34:47.558Z,26.47
2018-04-26T09:35:47.773Z,27.98
2018-04-26T09:36:48.044Z,27.73
2018-04-26T09:37:48.248Z,28.29
2018-04-26T09:38:48.429Z,25.06
2018-04-26T09:39:48.613Z,26.29
2018-04-26T09:40:48.679Z,25.50
2018-04-26T09:41:48.940Z,25.84
2018-04-26T09:42:49.124Z,26.00
2018-04-26T09:43:49.453Z,24.55
2018-04-26T09:44:49.322Z,23.55
2018-04-26T09:45:49.590Z,22.87
2018-04-26T09:46:50.027Z,21.66
2018-04-26T09:47:50.205Z,21.45
2018-04-26T09:48:50.328Z,20.39
2018-04-26T09:49:50.408Z,19.74
2018-04-26T09:50:50.560Z,19.37
2018-04-26T09:51:50.541Z,19.33
2018-04-26T09:52:50.781Z,18.83
2018-04-26T09:53:51.928Z,18.74
2018-04-26T09:54:52.452Z,18.70
2018-04-26T09:55:51.872Z,18.59
2018-04-26T09:56:51.473Z,17.98
2018-04-26T09:57:51.650Z,17.74
2018-04-26T09:58:51.848Z,17.54
2018-04-26T09:59:52.054Z,17.27
2018-04-26T10:00:52.229Z,17.19
2018-04-26T10:01:52.495Z,16.84
2018-04-26T10:02:52.643Z,16.61
2018-04-26T10:03:52.743Z,16.65
2018-04-26T10:04:52.965Z,16.81
2018-04-26T10:05:53.125Z,17.31
2018-04-26T10:06:54.905Z,19.21
2018-04-26T10:07:53.460Z,19.77
2018-04-26T10:08:53.790Z,19.22
2018-04-26T10:09:53.905Z,18.96
2018-04-26T10:10:54.627Z,18.58
2018-04-26T10:11:54.319Z,18.01
2018-04-26T10:12:54.549Z,17.34
2018-04-26T10:13:54.977Z,16.66
2018-04-26T10:14:54.835Z,15.94
2018-04-26T10:15:55.017Z,15.55
2018-04-26T10:16:55.254Z,15.22
2018-04-26T10:17:55.432Z,15.02
2018-04-26T10:18:55.603Z,14.92
2018-04-26T10:19:55.799Z,14.50
2018-04-26T10:20:56.025Z,14.47
2018-04-26T10:21:56.207Z,14.33
2018-04-26T10:22:56.465Z,14.12
2018-04-26T10:23:56.609Z,14.11
2018-04-26T10:24:56.800Z,14.04
2018-04-26T10:25:56.980Z,14.08
2018-04-26T10:26:57.170Z,14.08
2018-04-26T10:27:57.423Z,14.12
2018-04-26T10:28:57.759Z,13.90
2018-04-26T10:29:57.799Z,13.54
2018-04-26T10:30:57.873Z,15.04
2018-04-26T10:31:57.996Z,15.17
2018-04-26T10:32:58.170Z,15.68
2018-04-26T10:33:58.351Z,16.09
2018-04-26T10:34:58.535Z,16.02
2018-04-26T10:35:58.725Z,15.37
2018-04-26T10:36:58.918Z,15.62
2018-04-26T10:37:59.102Z,16.56
2018-04-26T10:38:59.291Z,17.39
2018-04-26T10:39:59.485Z,17.59
2018-04-26T10:40:59.674Z,17.64
2018-04-26T10:41:59.866Z,17.95
2018-04-26T10:43:00.045Z,17.36
2018-04-26T10:44:00.239Z,17.14
2018-04-26T10:45:00.421Z,17.14
2018-04-26T10:46:00.607Z,17.38
2018-04-26T10:47:00.788Z,17.48
2018-04-26T10:48:00.968Z,17.36
2018-04-26T10:49:01.148Z,16.83
2018-04-26T10:50:01.333Z,16.50
2018-04-26T10:51:01.516Z,16.31
2018-04-26T10:52:04.380Z,16.42
2018-04-26T10:53:04.486Z,16.54
2018-04-26T10:54:02.496Z,16.09
2018-04-26T10:55:02.886Z,16.23
2018-04-26T10:56:02.928Z,16.31
2018-04-26T10:57:02.932Z,16.00
2018-04-26T10:58:03.027Z,15.90
2018-04-26T10:59:03.286Z,15.65
2018-04-26T11:00:03.475Z,15.51
2018-04-26T11:01:03.270Z,15.80
2018-04-26T11:02:03.453Z,15.97
2018-04-26T11:03:03.638Z,16.21
2018-04-26T11:04:03.818Z,16.26
2018-04-26T11:05:04.005Z,16.36
2018-04-26T11:06:04.232Z,16.33
2018-04-26T11:07:04.400Z,16.41
2018-04-26T11:08:04.580Z,15.92
2018-04-26T11:09:04.792Z,15.95
2018-04-26T11:10:04.946Z,16.33
2018-04-26T11:11:05.131Z,16.38
2018-04-26T11:12:05.311Z,16.78
2018-04-26T11:13:05.517Z,17.16
2018-04-26T11:14:05.696Z,17.46
2018-04-26T11:15:05.880Z,17.31
2018-04-26T11:16:06.073Z,17.38
2018-04-26T11:17:06.255Z,17.19
2018-04-26T11:18:06.457Z,17.23
2018-04-26T11:19:06.671Z,17.16
2018-04-26T11:20:07.274Z,17.14
2018-04-26T11:21:07.053Z,16.75
2018-04-26T11:22:07.783Z,16.72
2018-04-26T11:23:07.988Z,16.99
2018-04-26T11:24:08.392Z,17.05
2018-04-26T11:25:08.178Z,17.05
2018-04-26T11:26:08.638Z,17.14
2018-04-26T11:27:08.607Z,17.05
2018-04-26T11:28:08.392Z,17.29
2018-04-26T11:29:08.572Z,17.48
2018-04-26T11:30:09.361Z,17.64
2018-04-26T11:31:09.367Z,17.64
2018-04-26T11:32:09.602Z,17.70
2018-04-26T11:33:09.685Z,17.54
2018-04-26T11:34:09.884Z,17.48
2018-04-26T11:35:10.093Z,17.41
2018-04-26T11:36:10.227Z,17.33
2018-04-26T11:37:10.498Z,17.11
2018-04-26T11:38:10.283Z,16.90
2018-04-26T11:39:10.653Z,16.81
2018-04-26T11:40:11.014Z,16.66
2018-04-26T11:41:10.871Z,16.39
2018-04-26T11:42:10.992Z,16.53
2018-04-26T11:43:11.457Z,16.68
2018-04-26T11:44:11.867Z,16.76
2018-04-26T11:45:11.333Z,16.87
2018-04-26T11:46:11.691Z,16.93
2018-04-26T11:47:11.640Z,17.24
2018-04-26T11:48:11.857Z,17.26
2018-04-26T11:49:12.005Z,17.38
2018-04-26T11:50:12.215Z,17.51
2018-04-26T11:51:12.488Z,17.33
2018-04-26T11:52:12.623Z,17.38
2018-04-26T11:53:12.666Z,17.46
2018-04-26T11:54:12.867Z,17.29
2018-04-26T11:55:13.673Z,17.41
2018-04-26T11:56:13.273Z,17.64
2018-04-26T11:57:13.814Z,17.67
2018-04-26T11:58:13.845Z,17.85
2018-04-26T11:59:14.027Z,17.90
2018-04-26T12:00:13.827Z,17.63
2018-04-26T12:01:14.675Z,17.38
2018-04-26T12:02:15.437Z,17.23
2018-04-26T12:03:15.943Z,17.14
2018-04-26T12:04:15.020Z,17.16
2018-04-26T12:05:15.152Z,16.86
2018-04-26T12:06:15.478Z,16.71
2018-04-26T12:07:15.555Z,16.93
2018-04-26T12:08:15.882Z,16.87
2018-04-26T12:09:16.013Z,16.99
2018-04-26T12:10:16.067Z,17.02
2018-04-26T12:11:16.057Z,17.06
2018-04-26T12:12:16.116Z,17.19
2018-04-26T12:13:16.506Z,17.04
2018-04-26T12:14:17.018Z,16.86
2018-04-26T12:15:16.636Z,16.21
2018-04-26T12:16:16.854Z,16.01
2018-04-26T12:17:17.240Z,15.90
2018-04-26T12:18:17.246Z,15.86
2018-04-26T12:19:17.374Z,16.01
2018-04-26T12:20:17.553Z,16.36
2018-04-26T12:21:17.833Z,16.50
2018-04-26T12:22:18.102Z,16.74
2018-04-26T12:23:17.936Z,16.68
2018-04-26T12:24:18.109Z,16.74
2018-04-26T12:25:18.288Z,16.97
2018-04-26T12:26:18.549Z,17.12
2018-04-26T12:27:18.838Z,17.08
2018-04-26T12:28:20.406Z,17.05
2018-04-26T12:29:22.619Z,17.05
2018-04-26T12:30:19.187Z,17.23
2018-04-26T12:31:19.554Z,17.15
2018-04-26T12:32:19.931Z,17.14
2018-04-26T12:33:19.994Z,17.29
2018-04-26T12:34:19.761Z,17.33
2018-04-26T12:35:20.543Z,17.42
2018-04-26T12:36:20.358Z,17.45
2018-04-26T12:37:20.331Z,17.30
2018-04-26T12:38:20.732Z,17.05
2018-04-26T12:39:20.719Z,16.83
2018-04-26T12:40:21.097Z,16.75
2018-04-26T12:41:21.108Z,16.86
2018-04-26T12:42:21.824Z,16.38
2018-04-26T12:43:21.460Z,16.17
2018-04-26T12:44:22.447Z,16.29
2018-04-26T12:45:22.249Z,16.46
2018-04-26T12:46:22.165Z,16.50
2018-04-26T12:47:23.970Z,16.35
2018-04-26T12:48:22.907Z,16.38
2018-04-26T12:49:22.463Z,16.61
2018-04-26T12:50:23.573Z,16.64
2018-04-26T12:51:24.242Z,16.51
2018-04-26T12:52:23.350Z,16.66
2018-04-26T12:53:23.224Z,16.90
2018-04-26T12:54:23.405Z,16.87
2018-04-26T12:55:23.617Z,16.65
2018-04-26T12:56:23.836Z,16.36
2018-04-26T12:57:24.047Z,16.39
2018-04-26T12:58:24.304Z,16.38
2018-04-26T12:59:24.379Z,16.26
2018-04-26T13:00:24.618Z,16.33
2018-04-26T13:01:24.862Z,16.33
2018-04-26T13:02:24.936Z,16.16